Time;durP1;ratioP1;P1;durP2;ratioP2;P2;SDS_P1;SDS_P2;PMS_P1;PMS_P2;Temp;Humidity;BMP_temperature;BMP_pressure;BME280_temperature;BME280_humidity;BME280_pressure;Samples;Min_cycle;Max_cycle;Signal;HPM_P1;HPM_P2
2023/07/02 00:01:00;;;;;;;5.53;3.00;;;;;;;16.62;100.00;150242.44;4935808;28;20253;-64
2023/07/02 00:03:27;;;;;;;3.50;2.67;;;;;;;16.60;100.00;150238.72;4939321;28;20225;-64
2023/07/02 00:05:56;;;;;;;4.23;3.20;;;;;;;16.60;100.00;150237.44;4937392;28;20235;-64
2023/07/02 00:08:22;;;;;;;5.63;3.13;;;;;;;16.57;100.00;150229.94;4936763;28;20232;-64
2023/07/02 00:10:49;;;;;;;5.90;4.33;;;;;;;16.55;100.00;150224.94;4935476;28;20721;-64
2023/07/02 00:13:16;;;;;;;3.50;2.83;;;;;;;16.52;100.00;150219.94;4938047;28;20239;-64
2023/07/02 00:15:44;;;;;;;4.23;3.07;;;;;;;16.48;100.00;150209.94;4937173;28;20911;-64
2023/07/02 00:18:11;;;;;;;6.07;3.30;;;;;;;16.44;100.00;150199.94;4939007;28;20248;-64
2023/07/02 00:20:38;;;;;;;3.93;3.07;;;;;;;16.42;100.00;150195.00;4939401;28;20296;-64
2023/07/02 00:23:06;;;;;;;3.40;2.83;;;;;;;16.39;100.00;150187.50;4934818;28;20263;-64
2023/07/02 00:25:32;;;;;;;6.67;2.87;;;;;;;16.38;100.00;150186.22;4937728;28;20225;-64
2023/07/02 00:27:59;;;;;;;3.90;2.83;;;;;;;16.41;100.00;150191.22;4934815;28;20958;-64
2023/07/02 00:30:26;;;;;;;8.17;3.00;;;;;;;16.34;100.00;150175.00;4937081;28;20220;-64
2023/07/02 00:32:54;;;;;;;3.53;3.13;;;;;;;16.33;100.00;150173.72;4934550;28;20243;-64
2023/07/02 00:35:20;;;;;;;3.33;3.00;;;;;;;16.42;100.00;150195.00;4939081;28;20648;-64
2023/07/02 00:37:47;;;;;;;3.60;3.10;;;;;;;16.41;100.00;150191.22;4931852;28;20246;-64
2023/07/02 00:40:14;;;;;;;5.93;3.23;;;;;;;16.37;100.00;150182.50;4938253;28;20240;-64
2023/07/02 00:42:40;;;;;;;4.53;2.87;;;;;;;16.42;100.00;150195.00;4934220;28;20236;-64
2023/07/02 00:45:08;;;;;;;4.47;3.03;;;;;;;16.44;100.00;150198.72;4934383;28;20258;-64
2023/07/02 00:47:35;;;;;;;6.57;2.80;;;;;;;16.44;100.00;150199.94;4935480;28;20234;-65
2023/07/02 00:50:04;;;;;;;5.67;2.97;;;;;;;16.46;100.00;150204.94;4933410;28;20243;-64
2023/07/02 00:52:31;;;;;;;5.07;3.20;;;;;;;16.51;100.00;150216.22;4935644;29;20651;-64
2023/07/02 00:54:57;;;;;;;5.13;2.77;;;;;;;16.53;100.00;150222.44;4936028;28;20224;-64
2023/07/02 00:57:29;;;;;;;7.43;2.97;;;;;;;16.52;100.00;150219.94;4938279;28;20592;-64
2023/07/02 00:59:57;;;;;;;3.87;2.83;;;;;;;16.53;100.00;150221.22;4936154;28;20239;-64
2023/07/02 01:02:25;;;;;;;5.90;2.90;;;;;;;16.53;100.00;150221.22;4938406;28;20231;-64
2023/07/02 01:04:57;;;;;;;3.57;3.13;;;;;;;16.49;100.00;150211.22;4934765;28;20232;-64
2023/07/02 01:07:25;;;;;;;3.63;3.07;;;;;;;16.44;100.00;150198.72;4952953;28;20238;-64
2023/07/02 01:09:52;;;;;;;4.83;3.13;;;;;;;16.44;100.00;150199.94;4935326;28;20728;-64
2023/07/02 01:12:21;;;;;;;5.93;2.97;;;;;;;16.39;100.00;150187.50;4939514;28;20830;-64
2023/07/02 01:14:52;;;;;;;3.50;3.10;;;;;;;16.44;100.00;150198.72;4935190;28;20223;-64
2023/07/02 01:17:19;;;;;;;3.70;3.20;;;;;;;16.38;100.00;150186.22;4937322;28;20239;-64
2023/07/02 01:19:51;;;;;;;4.37;3.13;;;;;;;16.42;100.00;150193.72;4934309;28;20320;-64
2023/07/02 01:22:19;;;;;;;4.97;3.53;;;;;;;16.47;100.00;150206.22;4936937;28;20239;-65
2023/07/02 01:24:47;;;;;;;6.93;2.70;;;;;;;16.41;100.00;150192.50;4925632;28;20284;-65
2023/07/02 01:27:14;;;;;;;4.97;3.33;;;;;;;16.40;100.00;150190.00;4935142;28;20241;-65
2023/07/02 01:29:41;;;;;;;6.40;3.10;;;;;;;16.47;100.00;150206.22;4932534;28;20223;-65
2023/07/02 01:32:09;;;;;;;6.17;3.50;;;;;;;16.45;100.00;150201.22;4935659;28;20244;-65
2023/07/02 01:34:35;;;;;;;3.70;3.10;;;;;;;16.36;100.00;150181.22;4935140;28;20248;-65
2023/07/02 01:37:04;;;;;;;4.73;3.40;;;;;;;16.37;100.00;150183.72;4929099;28;20242;-66
2023/07/02 01:39:31;;;;;;;8.10;3.10;;;;;;;16.40;100.00;150188.72;4935097;28;20236;-66
2023/07/02 01:42:09;;;;;;;6.40;3.80;;;;;;;16.30;100.00;150166.22;4933009;28;20365;-66
2023/07/02 01:44:36;;;;;;;5.03;3.23;;;;;;;16.33;100.00;150172.50;4931007;28;20262;-66
2023/07/02 01:47:03;;;;;;;5.53;3.33;;;;;;;16.32;100.00;150170.00;4929878;28;20244;-66
2023/07/02 01:49:30;;;;;;;7.37;3.33;;;;;;;16.31;100.00;150168.72;4938226;28;20223;-65
2023/07/02 01:51:58;;;;;;;5.10;3.13;;;;;;;16.31;100.00;150168.72;4935634;28;20231;-65
2023/07/02 01:54:28;;;;;;;10.07;3.27;;;;;;;16.18;100.00;150136.22;4936282;28;20246;-66
2023/07/02 01:56:55;;;;;;;8.10;3.80;;;;;;;16.14;100.00;150127.50;4934229;28;20558;-65
2023/07/02 01:59:22;;;;;;;5.57;3.57;;;;;;;16.09;100.00;150115.00;4936645;28;20230;-65
2023/07/02 02:01:49;;;;;;;8.87;3.90;;;;;;;16.08;100.00;150113.72;4949452;28;20231;-65
2023/07/02 02:04:17;;;;;;;5.23;3.50;;;;;;;15.96;100.00;150082.50;4934279;28;20589;-65
2023/07/02 02:06:43;;;;;;;8.40;3.93;;;;;;;15.97;100.00;150085.00;4935074;28;20227;-65
2023/07/02 02:09:11;;;;;;;9.37;4.13;;;;;;;15.88;100.00;150063.78;4936161;29;20347;-65
2023/07/02 02:11:41;;;;;;;9.23;3.70;;;;;;;15.74;100.00;150031.22;4933892;29;20249;-65
2023/07/02 02:14:08;;;;;;;10.10;4.37;;;;;;;15.76;100.00;150036.22;4947171;28;20247;-65
2023/07/02 02:16:35;;;;;;;6.27;3.90;;;;;;;15.69;100.00;150017.47;4936274;28;20234;-65
2023/07/02 02:19:03;;;;;;;6.27;3.93;;;;;;;15.68;100.00;150016.22;4932645;28;20254;-65
2023/07/02 02:21:30;;;;;;;8.80;4.10;;;;;;;15.64;100.00;150006.25;4937420;28;20233;-65
2023/07/02 02:23:57;;;;;;;7.73;3.97;;;;;;;15.63;100.00;150004.97;4933420;28;20222;-65
2023/07/02 02:26:25;;;;;;;8.13;4.07;;;;;;;15.60;100.00;149997.47;4933216;28;20226;-65
2023/07/02 02:28:53;;;;;;;14.50;4.87;;;;;;;15.57;100.00;149988.75;4931010;28;20310;-65
2023/07/02 02:31:23;;;;;;;8.43;4.27;;;;;;;15.53;100.00;149979.97;4933907;28;20233;-65
2023/07/02 02:33:51;;;;;;;6.13;4.20;;;;;;;15.47;100.00;149966.25;4929960;28;20232;-65
2023/07/02 02:36:21;;;;;;;10.03;4.17;;;;;;;15.42;100.00;149953.75;4934817;28;20314;-65
2023/07/02 02:38:47;;;;;;;6.33;3.93;;;;;;;15.37;100.00;149940.03;4933407;28;20230;-65
2023/07/02 02:41:15;;;;;;;12.23;4.90;;;;;;;15.33;100.00;149931.28;4939353;28;20263;-65
2023/07/02 02:43:47;;;;;;;9.97;4.73;;;;;;;15.33;100.00;149931.28;4934637;28;20226;-65
2023/07/02 02:46:22;;;;;;;9.73;4.43;;;;;;;15.28;100.00;149918.78;4939192;28;20239;-65
2023/07/02 02:48:49;;;;;;;6.90;4.77;;;;;;;15.26;100.00;149913.78;4935671;28;20762;-65
2023/07/02 02:51:15;;;;;;;9.87;4.60;;;;;;;15.24;100.00;149910.06;4937748;28;20290;-65
2023/07/02 02:53:42;;;;;;;7.83;4.50;;;;;;;15.24;100.00;149910.06;4932676;28;20234;-65
2023/07/02 02:56:08;;;;;;;13.00;5.37;;;;;;;15.31;100.00;149927.53;4935475;28;20245;-65
2023/07/02 02:58:35;;;;;;;10.97;5.13;;;;;;;15.28;100.00;149920.06;4937515;28;20223;-65
2023/07/02 03:01:02;;;;;;;10.70;4.73;;;;;;;15.23;100.00;149906.28;4934393;28;20255;-65
2023/07/02 03:03:30;;;;;;;8.27;4.60;;;;;;;15.22;100.00;149905.06;4936062;28;20300;-65
2023/07/02 03:05:56;;;;;;;9.03;4.33;;;;;;;15.19;100.00;149898.78;4933803;28;20671;-65
2023/07/02 03:08:23;;;;;;;9.20;4.70;;;;;;;15.16;100.00;149891.28;4936243;28;20231;-65
2023/07/02 03:10:49;;;;;;;9.23;4.83;;;;;;;15.16;100.00;149891.28;4939901;28;20258;-65
2023/07/02 03:13:16;;;;;;;10.77;4.93;;;;;;;15.17;100.00;149893.78;4937952;28;20230;-65
2023/07/02 03:15:43;;;;;;;10.20;4.53;;;;;;;15.16;100.00;149891.28;4935492;28;20238;-65
2023/07/02 03:18:09;;;;;;;13.17;4.53;;;;;;;15.16;100.00;149890.06;4933141;29;20239;-65
2023/07/02 03:20:37;;;;;;;7.17;4.57;;;;;;;15.14;100.00;149885.06;4936370;28;20238;-65
2023/07/02 03:23:04;;;;;;;11.57;4.90;;;;;;;15.14;100.00;149885.06;4940632;28;20335;-65
2023/07/02 03:25:30;;;;;;;8.23;4.77;;;;;;;15.14;100.00;149886.31;4938226;28;20252;-65
2023/07/02 03:27:57;;;;;;;11.30;5.00;;;;;;;15.10;100.00;149875.06;4934846;28;20258;-65
2023/07/02 03:33:05;;;;;;;10.07;4.33;;;;;;;15.09;100.00;149872.59;4952424;23;20220;-65
2023/07/02 03:35:32;;;;;;;10.67;4.60;;;;;;;15.09;100.00;149873.81;4959157;28;20240;-65
2023/07/02 03:38:00;;;;;;;15.00;5.03;;;;;;;15.03;100.00;149860.09;4960527;28;20241;-65
2023/07/02 03:40:26;;;;;;;11.13;4.80;;;;;;;15.01;100.00;149853.81;4957708;28;20233;-65
2023/07/02 03:42:53;;;;;;;9.27;4.40;;;;;;;15.03;100.00;149858.81;4954831;28;20244;-65
2023/07/02 03:45:20;;;;;;;8.97;4.33;;;;;;;15.07;100.00;149867.59;4956462;28;20240;-65
2023/07/02 03:47:46;;;;;;;13.90;4.40;;;;;;;15.06;100.00;149866.31;4953794;28;20234;-65
2023/07/02 03:50:13;;;;;;;8.67;4.53;;;;;;;15.04;100.00;149862.59;4958840;28;20230;-65
2023/07/02 03:52:39;;;;;;;16.40;4.50;;;;;;;15.03;100.00;149860.09;4956188;28;20225;-65
2023/07/02 03:55:09;;;;;;;12.33;4.53;;;;;;;15.01;100.00;149853.81;4958267;28;20688;-65
2023/07/02 03:57:35;;;;;;;9.50;4.23;;;;;;;15.06;100.00;149866.31;4954947;28;20230;-65
2023/07/02 04:00:02;;;;;;;8.43;4.77;;;;;;;15.06;100.00;149866.31;4953790;28;20241;-65
2023/07/02 04:02:29;;;;;;;7.63;4.63;;;;;;;15.06;100.00;149866.31;4953837;28;20238;-65
2023/07/02 04:04:55;;;;;;;8.80;4.67;;;;;;;15.09;100.00;149873.81;4954221;28;20268;-65
2023/07/02 04:07:22;;;;;;;9.40;5.13;;;;;;;15.13;100.00;149883.81;4956513;28;20230;-65
2023/07/02 04:09:49;;;;;;;8.57;4.70;;;;;;;15.14;100.00;149886.31;4951663;28;20244;-65
2023/07/02 04:12:17;;;;;;;8.40;4.53;;;;;;;15.14;100.00;149885.06;4954895;28;20254;-65
2023/07/02 04:14:43;;;;;;;11.83;4.60;;;;;;;15.17;100.00;149893.78;4952737;28;20245;-65
2023/07/02 04:17:10;;;;;;;10.57;5.00;;;;;;;15.20;100.00;149901.28;4956195;28;20233;-65
2023/07/02 04:19:36;;;;;;;8.63;4.90;;;;;;;15.25;100.00;149911.28;4957982;28;20264;-65
2023/07/02 04:22:03;;;;;;;12.63;4.70;;;;;;;15.32;100.00;149928.78;4956680;28;20240;-65
2023/07/02 04:24:30;;;;;;;12.27;4.40;;;;;;;15.35;100.00;149936.25;4955805;28;20324;-65
2023/07/02 04:26:56;;;;;;;8.63;4.40;;;;;;;15.37;100.00;149941.28;4953756;28;20908;-65
2023/07/02 04:29:24;;;;;;;12.00;4.60;;;;;;;15.38;100.00;149943.75;4954229;28;20241;-65
2023/07/02 04:31:51;;;;;;;9.87;4.90;;;;;;;15.39;100.00;149946.25;4958250;28;20260;-65
2023/07/02 04:34:17;;;;;;;11.03;4.87;;;;;;;15.44;100.00;149958.75;4957488;28;20254;-65
2023/07/02 04:36:44;;;;;;;12.07;4.70;;;;;;;15.46;100.00;149962.47;4955450;28;20702;-65
2023/07/02 04:39:11;;;;;;;6.93;4.63;;;;;;;15.46;100.00;149963.75;4958714;28;20764;-65
2023/07/02 04:41:37;;;;;;;12.57;4.50;;;;;;;15.47;100.00;149964.97;4954950;28;20352;-65
2023/07/02 04:44:04;;;;;;;11.57;4.70;;;;;;;15.50;100.00;149973.75;4953055;28;20230;-65
2023/07/02 04:46:32;;;;;;;10.27;4.47;;;;;;;15.59;100.00;149994.97;4957830;28;20786;-65
2023/07/02 04:48:59;;;;;;;8.77;4.10;;;;;;;15.70;100.00;150021.22;4952607;28;20226;-65
2023/07/02 04:51:25;;;;;;;6.80;3.93;;;;;;;15.67;100.00;150013.72;4950271;28;20232;-65
2023/07/02 04:53:52;;;;;;;9.27;4.50;;;;;;;15.72;100.00;150026.22;4951244;28;20240;-65
2023/07/02 04:56:23;;;;;;;7.17;4.20;;;;;;;15.79;100.00;150042.44;4956734;28;20234;-65
2023/07/02 04:58:50;;;;;;;11.23;4.37;;;;;;;15.82;100.00;150048.72;4954270;28;20238;-65
2023/07/02 05:01:17;;;;;;;8.17;4.40;;;;;;;15.92;100.00;150075.00;4956456;28;20261;-65
2023/07/02 05:03:45;;;;;;;11.40;5.20;;;;;;;15.93;100.00;150077.50;4954394;28;21214;-65
2023/07/02 05:06:11;;;;;;;17.60;5.37;;;;;;;16.01;100.00;150096.22;4954812;28;20222;-65
2023/07/02 05:08:38;;;;;;;9.90;5.50;;;;;;;16.09;99.72;150115.00;4954822;28;20238;-65
2023/07/02 05:11:04;;;;;;;11.43;5.20;;;;;;;16.16;100.00;150131.22;4953236;28;20244;-65
2023/07/02 05:13:31;;;;;;;12.03;6.33;;;;;;;16.18;98.11;150137.50;4956112;28;20231;-65
2023/07/02 05:15:58;;;;;;;12.03;7.37;;;;;;;16.23;98.22;150150.00;4951000;28;20249;-65
2023/07/02 05:18:24;;;;;;;15.03;7.30;;;;;;;16.32;97.62;150170.00;4955919;28;20297;-65
2023/07/02 05:20:52;;;;;;;14.53;7.27;;;;;;;16.44;98.25;150198.72;4950296;28;20233;-65
2023/07/02 05:23:19;;;;;;;14.20;6.93;;;;;;;16.49;97.26;150211.22;4955099;28;20296;-65
2023/07/02 05:25:45;;;;;;;15.20;7.20;;;;;;;16.60;99.40;150238.72;4955358;28;20285;-65
2023/07/02 05:28:12;;;;;;;15.43;7.43;;;;;;;16.61;94.70;150241.22;4956506;28;20290;-65
2023/07/02 05:30:39;;;;;;;15.17;8.10;;;;;;;16.70;96.67;150261.22;4955175;28;20232;-65
2023/07/02 05:33:05;;;;;;;17.97;8.53;;;;;;;16.70;94.32;150261.22;4951800;28;20286;-65
2023/07/02 05:35:32;;;;;;;16.50;7.30;;;;;;;16.76;93.89;150277.47;4955265;28;20300;-65
2023/07/02 05:38:00;;;;;;;15.80;8.70;;;;;;;16.82;92.56;150291.25;4952407;28;20245;-65
2023/07/02 05:40:26;;;;;;;16.37;8.40;;;;;;;16.74;90.50;150272.47;4956970;28;20253;-65
2023/07/02 05:42:53;;;;;;;18.03;7.97;;;;;;;16.82;93.01;150292.47;4954216;28;20226;-65
2023/07/02 05:45:20;;;;;;;13.33;8.33;;;;;;;16.85;95.09;150298.75;4955286;28;20241;-65
2023/07/02 05:47:46;;;;;;;20.30;8.87;;;;;;;16.91;92.45;150312.47;4950721;28;20286;-65
2023/07/02 05:50:13;;;;;;;16.10;8.47;;;;;;;17.02;90.91;150338.75;4953698;28;20293;-65
2023/07/02 05:52:39;;;;;;;15.10;8.17;;;;;;;17.05;92.61;150346.25;4951693;28;20254;-65
2023/07/02 05:55:10;;;;;;;14.40;8.40;;;;;;;16.94;90.46;150319.97;4952039;28;20247;-65
2023/07/02 05:57:37;;;;;;;13.37;7.47;;;;;;;17.08;93.38;150353.78;4954397;28;20238;-65
2023/07/02 06:00:06;;;;;;;17.67;9.17;;;;;;;17.05;91.47;150347.53;4949791;28;20242;-65
2023/07/02 06:02:38;;;;;;;22.63;8.63;;;;;;;17.17;88.93;150375.06;4956785;28;20235;-65
2023/07/02 06:05:06;;;;;;;18.17;8.67;;;;;;;17.37;91.39;150425.09;4952025;28;20234;-65
2023/07/02 06:07:33;;;;;;;16.60;8.33;;;;;;;17.34;86.55;150416.31;4954519;28;20242;-65
2023/07/02 06:09:59;;;;;;;17.17;8.47;;;;;;;17.54;86.19;150465.06;4953359;28;20223;-66
2023/07/02 06:12:27;;;;;;;16.07;9.10;;;;;;;17.68;89.41;150498.88;4960044;28;20228;-65
2023/07/02 06:14:54;;;;;;;19.60;8.83;;;;;;;17.69;84.68;150501.38;4951532;28;20226;-65
2023/07/02 06:17:22;;;;;;;14.50;8.20;;;;;;;17.74;86.37;150513.88;4957152;28;20236;-65
2023/07/02 06:19:49;;;;;;;17.17;8.83;;;;;;;17.82;88.07;150532.63;4956658;28;20240;-65
2023/07/02 06:22:15;;;;;;;16.40;8.70;;;;;;;17.84;85.86;150538.91;4957328;28;20250;-65
2023/07/02 06:24:42;;;;;;;20.40;9.37;;;;;;;17.59;82.59;150476.34;4954602;28;20321;-65
2023/07/02 06:27:09;;;;;;;15.27;8.40;;;;;;;17.92;84.35;150557.66;4957716;28;20248;-65
2023/07/02 06:29:37;;;;;;;21.10;8.47;;;;;;;17.94;85.60;150562.66;4959705;28;20241;-65
2023/07/02 06:32:04;;;;;;;17.33;8.73;;;;;;;18.19;86.33;150622.78;4953257;28;20690;-65
2023/07/02 06:34:31;;;;;;;19.30;9.27;;;;;;;18.39;80.20;150670.31;4956220;28;20235;-65
2023/07/02 06:36:57;;;;;;;16.53;8.50;;;;;;;18.35;83.81;150661.53;4958927;28;21014;-65
2023/07/02 06:39:24;;;;;;;16.70;8.47;;;;;;;18.25;82.61;150637.78;4956969;28;20243;-65
2023/07/02 06:41:50;;;;;;;15.30;8.93;;;;;;;18.19;80.30;150621.50;4953020;28;20236;-65
2023/07/02 06:44:18;;;;;;;23.53;9.77;;;;;;;18.32;79.90;150652.81;4960806;28;20238;-65
2023/07/02 06:46:47;;;;;;;16.17;9.13;;;;;;;18.73;81.67;150752.91;4959068;28;20224;-65
2023/07/02 06:49:14;;;;;;;19.00;8.53;;;;;;;18.92;81.15;150799.25;4958316;28;20239;-65
2023/07/02 06:51:41;;;;;;;17.03;8.93;;;;;;;18.83;75.63;150776.72;4956686;28;20239;-65
2023/07/02 06:54:08;;;;;;;17.60;9.77;;;;;;;19.18;77.41;150861.84;4954451;28;20314;-65
2023/07/02 06:56:34;;;;;;;18.20;9.70;;;;;;;19.29;74.24;150888.16;4955046;28;20244;-65
2023/07/02 06:59:01;;;;;;;22.80;11.17;;;;;;;19.29;74.18;150888.16;4957142;28;20789;-65
2023/07/02 07:01:28;;;;;;;22.27;10.80;;;;;;;19.38;70.21;150909.44;4956288;28;20238;-65
2023/07/02 07:03:56;;;;;;;22.73;9.97;;;;;;;19.55;72.20;150950.78;4954057;28;20248;-65
2023/07/02 07:06:23;;;;;;;17.83;9.47;;;;;;;19.90;70.45;151037.22;4961168;28;20234;-65
2023/07/02 07:08:50;;;;;;;21.70;10.10;;;;;;;19.72;68.82;150992.09;4958874;28;20228;-65
2023/07/02 07:11:21;;;;;;;18.43;10.07;;;;;;;20.23;66.89;151114.84;4960915;28;20255;-65
2023/07/02 07:13:47;;;;;;;22.77;11.13;;;;;;;20.47;67.12;151175.00;4954376;28;20235;-65
2023/07/02 07:16:14;;;;;;;21.03;10.90;;;;;;;20.50;65.71;151182.53;4958262;28;20236;-65
2023/07/02 07:18:40;;;;;;;22.87;10.97;;;;;;;20.41;64.97;151158.72;4959367;28;20292;-65
2023/07/02 07:21:08;;;;;;;21.63;11.43;;;;;;;20.20;63.66;151108.63;4956663;28;20239;-65
2023/07/02 07:23:35;;;;;;;20.47;11.80;;;;;;;20.45;65.34;151170.00;4953330;28;20304;-65
2023/07/02 07:26:02;;;;;;;23.80;11.70;;;;;;;20.47;64.62;151173.78;4952738;28;20242;-65
2023/07/02 07:28:28;;;;;;;21.60;12.00;;;;;;;20.33;66.43;151139.91;4956711;28;20295;-65
2023/07/02 07:30:55;;;;;;;25.53;12.93;;;;;;;20.27;63.53;151124.88;4952394;28;20653;-65
2023/07/02 07:33:21;;;;;;;23.57;12.90;;;;;;;20.41;60.53;151158.72;4958518;28;20232;-65
2023/07/02 07:35:48;;;;;;;23.50;12.60;;;;;;;20.23;62.60;151114.84;4953812;28;20246;-65
2023/07/02 07:38:16;;;;;;;25.57;12.37;;;;;;;20.14;64.29;151093.59;4955211;28;20241;-65
2023/07/02 07:40:44;;;;;;;27.37;13.53;;;;;;;19.85;64.37;151023.38;4953564;28;20235;-65
2023/07/02 07:43:10;;;;;;;25.70;12.83;;;;;;;20.37;61.66;151148.72;4956422;28;21399;-65
2023/07/02 07:45:37;;;;;;;24.47;12.93;;;;;;;20.60;61.90;151205.06;4956485;28;20223;-65
2023/07/02 07:48:04;;;;;;;25.73;13.03;;;;;;;20.77;61.58;151246.41;4956829;28;20230;-65
2023/07/02 07:50:31;;;;;;;25.90;12.47;;;;;;;20.82;62.32;151259.00;4958189;28;20241;-65
2023/07/02 07:52:58;;;;;;;30.30;14.40;;;;;;;20.67;63.76;151221.38;4953822;28;20238;-65
2023/07/02 07:55:26;;;;;;;26.07;13.50;;;;;;;20.89;62.19;151276.53;4956738;28;20305;-65
2023/07/02 07:57:52;;;;;;;29.63;14.10;;;;;;;21.10;62.05;151326.69;4952441;28;20277;-65
2023/07/02 08:00:19;;;;;;;27.47;13.83;;;;;;;21.34;61.58;151385.56;4957495;28;20234;-65
2023/07/02 08:02:47;;;;;;;25.43;13.50;;;;;;;21.59;59.77;151444.53;4953921;28;20786;-65
2023/07/02 08:05:14;;;;;;;27.00;13.47;;;;;;;21.47;61.48;151416.94;4955683;28;20237;-65
2023/07/02 08:07:41;;;;;;;24.93;13.80;;;;;;;21.75;58.98;151483.41;4956655;28;21129;-66
2023/07/02 08:10:08;;;;;;;26.23;13.53;;;;;;;21.52;55.78;151429.47;4953562;28;20238;-66
2023/07/02 08:12:37;;;;;;;28.67;13.37;;;;;;;20.91;61.94;151281.56;4958128;28;20758;-65
2023/07/02 08:15:04;;;;;;;27.50;12.90;;;;;;;20.60;63.28;151205.06;4954166;28;20237;-65
2023/07/02 08:17:31;;;;;;;26.60;13.07;;;;;;;20.74;65.05;151240.16;4954552;28;20242;-65
2023/07/02 08:19:57;;;;;;;22.40;13.40;;;;;;;20.89;60.65;151275.31;4951851;28;20243;-65
2023/07/02 08:22:24;;;;;;;22.73;12.33;;;;;;;20.62;64.43;151210.09;4956659;28;20248;-65
2023/07/02 08:24:50;;;;;;;21.77;12.90;;;;;;;20.64;66.29;151215.09;4953929;28;20225;-65
2023/07/02 08:27:19;;;;;;;23.07;12.10;;;;;;;21.02;63.32;151306.63;4956766;28;20293;-65
2023/07/02 08:29:47;;;;;;;24.23;12.10;;;;;;;20.72;64.34;151235.16;4953675;28;20653;-65
2023/07/02 08:32:14;;;;;;;24.97;12.83;;;;;;;20.89;61.66;151275.31;4954898;28;20710;-66
2023/07/02 08:34:40;;;;;;;24.53;13.40;;;;;;;20.83;60.70;151261.50;4952787;28;20234;-66
2023/07/02 08:37:07;;;;;;;21.87;12.83;;;;;;;20.67;63.07;151221.38;4950705;28;20267;-66
2023/07/02 08:39:35;;;;;;;27.10;12.33;;;;;;;20.62;66.19;151211.38;4954251;28;20224;-66
2023/07/02 08:42:02;;;;;;;23.40;12.73;;;;;;;20.67;65.62;151221.38;4952129;28;20269;-66
2023/07/02 08:44:29;;;;;;;24.00;12.47;;;;;;;21.24;62.74;151360.50;4954115;28;20230;-65
2023/07/02 08:46:57;;;;;;;24.40;12.70;;;;;;;21.54;57.76;151433.22;4951441;28;20234;-65
2023/07/02 08:49:23;;;;;;;24.70;13.37;;;;;;;21.58;57.60;151442.00;4953592;28;20330;-65
2023/07/02 08:51:50;;;;;;;23.60;12.90;;;;;;;21.17;59.85;151343.00;4950376;28;20931;-65
2023/07/02 08:54:18;;;;;;;25.80;13.53;;;;;;;21.23;57.47;151358.00;4953461;28;20691;-65
2023/07/02 08:56:45;;;;;;;24.07;14.53;;;;;;;21.12;58.69;151330.47;4947549;28;20251;-65
2023/07/02 08:59:12;;;;;;;27.90;14.20;;;;;;;21.19;55.48;151348.00;4956102;28;20563;-65
2023/07/02 09:01:49;;;;;;;24.47;13.50;;;;;;;20.70;56.93;151228.88;4954711;28;20240;-65
2023/07/02 09:04:18;;;;;;;27.43;13.37;;;;;;;20.50;57.89;151181.28;4951072;28;20244;-65
2023/07/02 09:06:45;;;;;;;24.40;13.37;;;;;;;20.69;60.07;151227.63;4956808;28;20230;-65
2023/07/02 09:09:11;;;;;;;28.97;14.43;;;;;;;21.00;59.72;151301.59;4957902;28;20235;-65
2023/07/02 09:11:48;;;;;;;25.30;13.73;;;;;;;21.20;60.03;151350.50;4956136;28;20665;-66
2023/07/02 09:14:24;;;;;;;26.57;14.40;;;;;;;21.04;60.51;151311.63;4954517;28;20232;-66
2023/07/02 09:17:02;;;;;;;26.63;13.07;;;;;;;20.60;59.21;151205.06;4949016;28;20704;-65
2023/07/02 09:19:30;;;;;;;26.13;14.10;;;;;;;20.96;58.24;151291.56;4955645;28;20712;-65
2023/07/02 09:21:59;;;;;;;28.27;14.33;;;;;;;20.91;58.85;151281.56;4950482;28;20249;-66
2023/07/02 09:24:26;;;;;;;28.00;14.57;;;;;;;21.10;55.23;151326.69;4954602;28;20236;-66
2023/07/02 09:26:56;;;;;;;30.23;13.50;;;;;;;20.90;58.18;151277.81;4952360;28;20234;-65
2023/07/02 09:29:23;;;;;;;28.70;14.87;;;;;;;21.16;58.12;151341.72;4953502;28;20225;-65
2023/07/02 09:31:51;;;;;;;25.70;14.40;;;;;;;21.04;57.63;151311.63;4951334;28;20264;-65
2023/07/02 09:34:17;;;;;;;29.63;15.60;;;;;;;21.10;57.42;151326.69;4955986;28;20232;-65
2023/07/02 09:36:45;;;;;;;26.83;14.80;;;;;;;21.01;57.36;151305.38;4951427;28;20236;-65
2023/07/02 09:39:13;;;;;;;24.40;14.50;;;;;;;21.35;54.21;151386.84;4953987;28;20240;-65
2023/07/02 09:41:42;;;;;;;26.87;14.73;;;;;;;21.44;54.11;151408.13;4953897;28;20272;-65
2023/07/02 09:44:10;;;;;;;28.20;15.10;;;;;;;21.55;51.50;151434.50;4950819;28;20231;-65
2023/07/02 09:46:43;;;;;;;27.63;15.97;;;;;;;21.56;52.69;151438.22;4954987;28;20633;-65
2023/07/02 09:49:15;;;;;;;30.47;15.43;;;;;;;21.63;53.47;151454.59;4950678;28;20238;-65
2023/07/02 09:51:42;;;;;;;31.13;16.47;;;;;;;21.73;52.53;151478.41;4951373;28;20726;-65
2023/07/02 09:54:11;;;;;;;33.07;15.60;;;;;;;21.70;53.76;151470.88;4954711;28;20234;-65
2023/07/02 09:56:37;;;;;;;30.37;15.83;;;;;;;21.96;53.17;151534.81;4954476;28;20235;-65
2023/07/02 09:59:04;;;;;;;28.70;14.77;;;;;;;21.33;53.42;151381.84;4955370;28;20695;-65
2023/07/02 10:01:30;;;;;;;27.87;14.67;;;;;;;21.12;50.16;151330.47;4957274;28;20589;-65
2023/07/02 10:03:57;;;;;;;25.70;14.60;;;;;;;21.29;48.30;151373.03;4949744;28;20226;-65
2023/07/02 10:06:24;;;;;;;27.57;14.80;;;;;;;21.33;49.53;151381.84;4954276;28;20235;-66
2023/07/02 10:08:54;;;;;;;26.83;15.43;;;;;;;21.69;47.23;151469.66;4948701;28;20245;-66
2023/07/02 10:11:35;;;;;;;25.43;14.73;;;;;;;21.48;48.90;151419.44;4953552;28;20240;-66
2023/07/02 10:14:02;;;;;;;24.77;13.93;;;;;;;21.82;48.96;151500.97;4949597;28;20321;-66
2023/07/02 10:16:31;;;;;;;26.70;14.57;;;;;;;21.47;47.14;151415.66;4955001;28;20238;-66
2023/07/02 10:19:09;;;;;;;26.27;15.37;;;;;;;21.82;48.75;151502.19;4948477;28;20327;-66
2023/07/02 10:21:35;;;;;;;31.80;14.63;;;;;;;22.31;48.01;151620.09;4952180;28;20259;-66
2023/07/02 10:24:10;;;;;;;25.20;15.47;;;;;;;22.40;47.14;151642.66;4948469;28;20296;-66
2023/07/02 10:26:38;;;;;;;27.70;15.20;;;;;;;21.99;46.50;151541.09;4951497;28;20537;-66
2023/07/02 10:29:19;;;;;;;27.50;14.80;;;;;;;22.43;43.59;151648.91;4952210;28;20232;-66
2023/07/02 10:31:49;;;;;;;25.93;15.13;;;;;;;22.66;43.73;151704.16;4949358;28;20239;-66
2023/07/02 10:34:15;;;;;;;26.93;14.83;;;;;;;22.49;45.66;151664.03;4954410;28;20295;-66
2023/07/02 10:36:42;;;;;;;28.07;15.40;;;;;;;22.42;45.72;151646.41;4950564;28;20309;-66
2023/07/02 10:39:09;;;;;;;25.10;15.50;;;;;;;22.61;44.05;151692.91;4953111;28;20241;-66
2023/07/02 10:41:36;;;;;;;23.57;14.93;;;;;;;22.93;41.83;151769.41;4957955;28;20240;-66
2023/07/02 10:44:10;;;;;;;25.80;15.13;;;;;;;22.99;43.21;151784.47;4950697;28;20243;-66
2023/07/02 10:46:44;;;;;;;25.90;14.47;;;;;;;23.14;43.34;151820.81;4953010;28;20752;-66
2023/07/02 10:49:11;;;;;;;24.93;14.53;;;;;;;23.74;42.37;151966.47;4947204;28;20244;-66
2023/07/02 10:51:38;;;;;;;27.97;15.20;;;;;;;23.50;42.91;151907.44;4953517;28;20247;-66
2023/07/02 10:54:05;;;;;;;25.20;14.77;;;;;;;23.37;42.85;151876.09;4958513;28;20631;-66
2023/07/02 10:56:33;;;;;;;27.00;15.57;;;;;;;23.49;43.35;151906.22;4966631;28;20664;-66
2023/07/02 10:58:59;;;;;;;26.27;15.47;;;;;;;23.42;43.73;151889.88;4952286;28;20636;-66
2023/07/02 11:01:29;;;;;;;23.97;14.97;;;;;;;23.11;42.49;151813.31;4959052;28;20238;-66
2023/07/02 11:04:04;;;;;;;26.03;14.90;;;;;;;23.08;44.22;151807.06;4953111;28;20241;-66
2023/07/02 11:06:33;;;;;;;25.67;15.10;;;;;;;23.40;43.27;151884.84;4958782;28;20226;-65
2023/07/02 11:09:03;;;;;;;25.87;15.33;;;;;;;23.71;43.32;151958.94;4954559;28;20223;-65
2023/07/02 11:11:30;;;;;;;26.37;15.07;;;;;;;24.26;40.38;152093.28;4957165;28;20230;-65
2023/07/02 11:13:56;;;;;;;28.67;14.93;;;;;;;24.29;42.35;152099.53;4953097;28;20236;-65
2023/07/02 11:16:26;;;;;;;29.40;15.40;;;;;;;23.61;40.77;151935.06;4958887;28;20225;-65
2023/07/02 11:18:55;;;;;;;27.83;14.70;;;;;;;23.35;43.71;151872.31;4951848;28;20232;-66